sensor_id;sensor_type;location;lat;lon;timestamp;temperature;humidity
13970;DHT22;7057;49.984;8.404;2023-03-12T00:00:21;-0.70;99.90
13970;DHT22;7057;49.984;8.404;2023-03-12T00:02:48;-0.70;99.90
13970;DHT22;7057;49.984;8.404;2023-03-12T00:05:15;-0.30;99.90
13970;DHT22;7057;49.984;8.404;2023-03-12T00:07:44;-0.70;99.90
13970;DHT22;7057;49.984;8.404;2023-03-12T00:10:11;-0.70;99.90
13970;DHT22;7057;49.984;8.404;2023-03-12T00:12:38;-0.70;99.90
13970;DHT22;7057;49.984;8.404;2023-03-12T00:15:07;-0.70;99.90
13970;DHT22;7057;49.984;8.404;2023-03-12T00:17:34;-0.70;99.90
13970;DHT22;7057;49.984;8.404;2023-03-12T00:20:02;-0.80;99.90
13970;DHT22;7057;49.984;8.404;2023-03-12T00:22:32;-0.80;99.90
13970;DHT22;7057;49.984;8.404;2023-03-12T00:25:01;-0.80;99.90
13970;DHT22;7057;49.984;8.404;2023-03-12T00:27:28;-0.80;99.90
13970;DHT22;7057;49.984;8.404;2023-03-12T00:29:55;-0.80;99.90
13970;DHT22;7057;49.984;8.404;2023-03-12T00:32:22;-0.80;99.90
13970;DHT22;7057;49.984;8.404;2023-03-12T00:34:50;-0.80;99.90
13970;DHT22;7057;49.984;8.404;2023-03-12T00:37:18;-0.70;99.90
13970;DHT22;7057;49.984;8.404;2023-03-12T00:39:45;-0.60;99.90
13970;DHT22;7057;49.984;8.404;2023-03-12T00:42:14;-0.60;99.90
13970;DHT22;7057;49.984;8.404;2023-03-12T00:44:41;-0.50;99.90
13970;DHT22;7057;49.984;8.404;2023-03-12T00:47:09;-0.50;99.90
13970;DHT22;7057;49.984;8.404;2023-03-12T00:49:36;-0.50;99.90
13970;DHT22;7057;49.984;8.404;2023-03-12T00:52:04;-0.40;99.90
13970;DHT22;7057;49.984;8.404;2023-03-12T00:54:31;-0.30;99.90
13970;DHT22;7057;49.984;8.404;2023-03-12T00:56:59;-0.30;99.90
13970;DHT22;7057;49.984;8.404;2023-03-12T00:59:27;-0.30;99.90
13970;DHT22;7057;49.984;8.404;2023-03-12T01:01:54;-0.30;99.90
13970;DHT22;7057;49.984;8.404;2023-03-12T01:04:22;-0.20;99.90
13970;DHT22;7057;49.984;8.404;2023-03-12T01:06:49;-0.20;99.90
13970;DHT22;7057;49.984;8.404;2023-03-12T01:09:16;-0.20;99.90
13970;DHT22;7057;49.984;8.404;2023-03-12T01:11:43;-0.20;99.90
13970;DHT22;7057;49.984;8.404;2023-03-12T01:14:10;-0.20;99.90
13970;DHT22;7057;49.984;8.404;2023-03-12T01:16:39;-0.10;99.90
13970;DHT22;7057;49.984;8.404;2023-03-12T01:19:06;-0.10;99.90
13970;DHT22;7057;49.984;8.404;2023-03-12T01:21:33;-0.10;99.90
13970;DHT22;7057;49.984;8.404;2023-03-12T01:24:00;-0.10;99.90
13970;DHT22;7057;49.984;8.404;2023-03-12T01:26:28;-0.10;99.90
13970;DHT22;7057;49.984;8.404;2023-03-12T01:28:55;-0.10;99.90
13970;DHT22;7057;49.984;8.404;2023-03-12T01:31:22;-0.10;99.90
13970;DHT22;7057;49.984;8.404;2023-03-12T01:33:51;-0.10;99.90
13970;DHT22;7057;49.984;8.404;2023-03-12T01:36:20;-0.10;99.90
13970;DHT22;7057;49.984;8.404;2023-03-12T01:38:50;-0.10;99.90
13970;DHT22;7057;49.984;8.404;2023-03-12T01:41:17;-0.10;99.90
13970;DHT22;7057;49.984;8.404;2023-03-12T01:43:45;-0.10;99.90
13970;DHT22;7057;49.984;8.404;2023-03-12T01:46:27;-0.10;99.90
13970;DHT22;7057;49.984;8.404;2023-03-12T01:49:00;-0.10;99.90
13970;DHT22;7057;49.984;8.404;2023-03-12T01:51:32;0.00;99.90
13970;DHT22;7057;49.984;8.404;2023-03-12T01:54:03;0.00;99.90
13970;DHT22;7057;49.984;8.404;2023-03-12T01:56:33;0.00;99.90
13970;DHT22;7057;49.984;8.404;2023-03-12T01:59:05;0.00;99.90
13970;DHT22;7057;49.984;8.404;2023-03-12T02:01:33;0.00;99.90
13970;DHT22;7057;49.984;8.404;2023-03-12T02:04:02;0.10;99.90
13970;DHT22;7057;49.984;8.404;2023-03-12T02:06:33;0.10;99.90
13970;DHT22;7057;49.984;8.404;2023-03-12T02:09:05;0.10;99.90
13970;DHT22;7057;49.984;8.404;2023-03-12T02:11:33;0.10;99.90
13970;DHT22;7057;49.984;8.404;2023-03-12T02:14:00;0.20;99.90
13970;DHT22;7057;49.984;8.404;2023-03-12T02:16:28;0.20;99.90
13970;DHT22;7057;49.984;8.404;2023-03-12T02:18:56;0.20;99.90
13970;DHT22;7057;49.984;8.404;2023-03-12T02:21:29;0.20;99.90
13970;DHT22;7057;49.984;8.404;2023-03-12T02:24:02;0.10;99.90
13970;DHT22;7057;49.984;8.404;2023-03-12T02:26:34;0.10;99.90
13970;DHT22;7057;49.984;8.404;2023-03-12T02:29:02;0.10;99.90
13970;DHT22;7057;49.984;8.404;2023-03-12T02:31:34;0.10;99.90
13970;DHT22;7057;49.984;8.404;2023-03-12T02:34:03;0.10;99.90
13970;DHT22;7057;49.984;8.404;2023-03-12T02:36:30;0.10;99.90
13970;DHT22;7057;49.984;8.404;2023-03-12T02:38:57;0.00;99.90
13970;DHT22;7057;49.984;8.404;2023-03-12T02:41:27;0.00;99.90
13970;DHT22;7057;49.984;8.404;2023-03-12T02:44:00;0.00;99.90
13970;DHT22;7057;49.984;8.404;2023-03-12T02:46:31;0.00;99.90
13970;DHT22;7057;49.984;8.404;2023-03-12T02:49:00;0.00;99.90
13970;DHT22;7057;49.984;8.404;2023-03-12T02:51:27;0.10;99.90
13970;DHT22;7057;49.984;8.404;2023-03-12T02:53:55;0.10;99.90
13970;DHT22;7057;49.984;8.404;2023-03-12T02:56:22;0.10;99.90
13970;DHT22;7057;49.984;8.404;2023-03-12T02:58:50;0.20;99.90
13970;DHT22;7057;49.984;8.404;2023-03-12T03:01:19;0.20;99.90
13970;DHT22;7057;49.984;8.404;2023-03-12T03:03:46;0.30;99.90
13970;DHT22;7057;49.984;8.404;2023-03-12T03:06:14;0.30;99.90
13970;DHT22;7057;49.984;8.404;2023-03-12T03:08:41;0.20;99.90
13970;DHT22;7057;49.984;8.404;2023-03-12T03:11:08;0.20;99.90
13970;DHT22;7057;49.984;8.404;2023-03-12T03:13:36;0.20;99.90
13970;DHT22;7057;49.984;8.404;2023-03-12T03:16:04;0.30;99.90
13970;DHT22;7057;49.984;8.404;2023-03-12T03:18:33;0.20;99.90
13970;DHT22;7057;49.984;8.404;2023-03-12T03:21:03;0.30;99.90
13970;DHT22;7057;49.984;8.404;2023-03-12T03:23:31;0.30;99.90
13970;DHT22;7057;49.984;8.404;2023-03-12T03:25:58;0.30;99.90
13970;DHT22;7057;49.984;8.404;2023-03-12T03:28:27;0.40;99.90
13970;DHT22;7057;49.984;8.404;2023-03-12T03:30:56;0.40;99.90
13970;DHT22;7057;49.984;8.404;2023-03-12T03:33:26;0.40;99.90
13970;DHT22;7057;49.984;8.404;2023-03-12T03:35:55;0.50;99.90
13970;DHT22;7057;49.984;8.404;2023-03-12T03:38:24;0.50;99.90
13970;DHT22;7057;49.984;8.404;2023-03-12T03:40:52;0.50;99.90
13970;DHT22;7057;49.984;8.404;2023-03-12T03:43:19;0.60;99.90
13970;DHT22;7057;49.984;8.404;2023-03-12T03:45:47;0.60;99.90
13970;DHT22;7057;49.984;8.404;2023-03-12T03:48:14;0.60;99.90
13970;DHT22;7057;49.984;8.404;2023-03-12T03:50:41;0.60;99.90
13970;DHT22;7057;49.984;8.404;2023-03-12T03:53:10;0.60;99.90
13970;DHT22;7057;49.984;8.404;2023-03-12T03:55:39;0.60;99.90
13970;DHT22;7057;49.984;8.404;2023-03-12T03:58:07;0.50;99.90
13970;DHT22;7057;49.984;8.404;2023-03-12T04:00:34;0.50;99.90
13970;DHT22;7057;49.984;8.404;2023-03-12T04:03:01;0.50;99.90
13970;DHT22;7057;49.984;8.404;2023-03-12T04:05:28;0.50;99.90
13970;DHT22;7057;49.984;8.404;2023-03-12T04:07:56;0.60;99.90
13970;DHT22;7057;49.984;8.404;2023-03-12T04:10:29;0.50;99.90
13970;DHT22;7057;49.984;8.404;2023-03-12T04:12:57;0.60;99.90
13970;DHT22;7057;49.984;8.404;2023-03-12T04:15:24;0.60;99.90
13970;DHT22;7057;49.984;8.404;2023-03-12T04:17:51;0.60;99.90
13970;DHT22;7057;49.984;8.404;2023-03-12T04:20:18;0.60;99.90
13970;DHT22;7057;49.984;8.404;2023-03-12T04:22:45;0.60;99.90
13970;DHT22;7057;49.984;8.404;2023-03-12T04:25:13;0.60;99.90
13970;DHT22;7057;49.984;8.404;2023-03-12T04:27:41;0.70;99.90
13970;DHT22;7057;49.984;8.404;2023-03-12T04:30:09;0.70;99.90
13970;DHT22;7057;49.984;8.404;2023-03-12T04:32:37;0.70;99.90
13970;DHT22;7057;49.984;8.404;2023-03-12T04:35:04;0.70;99.90
13970;DHT22;7057;49.984;8.404;2023-03-12T04:37:32;0.60;99.90
13970;DHT22;7057;49.984;8.404;2023-03-12T04:40:00;0.50;99.90
13970;DHT22;7057;49.984;8.404;2023-03-12T04:42:29;0.40;99.90
13970;DHT22;7057;49.984;8.404;2023-03-12T04:44:58;0.30;99.90
13970;DHT22;7057;49.984;8.404;2023-03-12T04:47:25;0.30;99.90
13970;DHT22;7057;49.984;8.404;2023-03-12T04:49:52;0.30;99.90
13970;DHT22;7057;49.984;8.404;2023-03-12T04:52:19;0.30;99.90
13970;DHT22;7057;49.984;8.404;2023-03-12T04:54:46;0.30;99.90
13970;DHT22;7057;49.984;8.404;2023-03-12T04:57:13;0.20;99.90
13970;DHT22;7057;49.984;8.404;2023-03-12T04:59:40;0.20;99.90
13970;DHT22;7057;49.984;8.404;2023-03-12T05:02:09;0.20;99.90
13970;DHT22;7057;49.984;8.404;2023-03-12T05:04:36;0.20;99.90
13970;DHT22;7057;49.984;8.404;2023-03-12T05:07:03;0.30;99.90
13970;DHT22;7057;49.984;8.404;2023-03-12T05:09:31;0.30;99.90
13970;DHT22;7057;49.984;8.404;2023-03-12T05:11:58;0.20;99.90
13970;DHT22;7057;49.984;8.404;2023-03-12T05:14:25;0.40;99.90
13970;DHT22;7057;49.984;8.404;2023-03-12T05:16:52;0.40;99.90
13970;DHT22;7057;49.984;8.404;2023-03-12T05:19:21;0.40;99.90
13970;DHT22;7057;49.984;8.404;2023-03-12T05:21:48;0.30;99.90
13970;DHT22;7057;49.984;8.404;2023-03-12T05:24:15;0.30;99.90
13970;DHT22;7057;49.984;8.404;2023-03-12T05:26:43;0.30;99.90
13970;DHT22;7057;49.984;8.404;2023-03-12T05:29:10;0.30;99.90
13970;DHT22;7057;49.984;8.404;2023-03-12T05:31:38;0.40;99.90
13970;DHT22;7057;49.984;8.404;2023-03-12T05:34:05;0.50;99.90
13970;DHT22;7057;49.984;8.404;2023-03-12T05:36:33;0.60;99.90
13970;DHT22;7057;49.984;8.404;2023-03-12T05:39:00;0.60;99.90
13970;DHT22;7057;49.984;8.404;2023-03-12T05:41:28;0.60;99.90
13970;DHT22;7057;49.984;8.404;2023-03-12T05:43:57;0.70;99.90
13970;DHT22;7057;49.984;8.404;2023-03-12T05:46:25;0.70;99.90
13970;DHT22;7057;49.984;8.404;2023-03-12T05:48:53;0.80;99.90
13970;DHT22;7057;49.984;8.404;2023-03-12T05:51:20;0.90;99.90
13970;DHT22;7057;49.984;8.404;2023-03-12T05:53:49;0.90;99.90
13970;DHT22;7057;49.984;8.404;2023-03-12T05:56:17;1.00;99.90
13970;DHT22;7057;49.984;8.404;2023-03-12T05:58:47;1.00;99.90
13970;DHT22;7057;49.984;8.404;2023-03-12T06:01:17;1.10;99.90
13970;DHT22;7057;49.984;8.404;2023-03-12T06:03:45;1.00;99.90
13970;DHT22;7057;49.984;8.404;2023-03-12T06:06:13;1.00;99.90
13970;DHT22;7057;49.984;8.404;2023-03-12T06:08:40;1.10;99.90
13970;DHT22;7057;49.984;8.404;2023-03-12T06:11:09;1.00;99.90
13970;DHT22;7057;49.984;8.404;2023-03-12T06:13:36;1.00;99.90
13970;DHT22;7057;49.984;8.404;2023-03-12T06:16:05;1.00;99.90
13970;DHT22;7057;49.984;8.404;2023-03-12T06:18:34;1.10;99.90
13970;DHT22;7057;49.984;8.404;2023-03-12T06:21:09;1.10;99.90
13970;DHT22;7057;49.984;8.404;2023-03-12T06:23:37;1.10;99.90
13970;DHT22;7057;49.984;8.404;2023-03-12T06:26:05;1.10;99.90
13970;DHT22;7057;49.984;8.404;2023-03-12T06:28:34;1.20;99.90
13970;DHT22;7057;49.984;8.404;2023-03-12T06:31:03;1.20;99.90
13970;DHT22;7057;49.984;8.404;2023-03-12T06:33:30;1.10;99.90
13970;DHT22;7057;49.984;8.404;2023-03-12T06:36:00;1.10;99.90
13970;DHT22;7057;49.984;8.404;2023-03-12T06:38:27;1.10;99.90
13970;DHT22;7057;49.984;8.404;2023-03-12T06:40:56;1.00;99.90
13970;DHT22;7057;49.984;8.404;2023-03-12T06:43:25;1.10;99.90
13970;DHT22;7057;49.984;8.404;2023-03-12T06:45:55;1.20;99.90
13970;DHT22;7057;49.984;8.404;2023-03-12T06:48:24;1.30;99.90
13970;DHT22;7057;49.984;8.404;2023-03-12T06:50:51;1.40;99.90
13970;DHT22;7057;49.984;8.404;2023-03-12T06:53:19;1.50;99.90
13970;DHT22;7057;49.984;8.404;2023-03-12T06:55:49;1.50;99.90
13970;DHT22;7057;49.984;8.404;2023-03-12T06:58:17;1.50;99.90
13970;DHT22;7057;49.984;8.404;2023-03-12T07:00:44;1.70;99.90
13970;DHT22;7057;49.984;8.404;2023-03-12T07:03:13;2.00;99.90
13970;DHT22;7057;49.984;8.404;2023-03-12T07:05:43;1.90;99.90
13970;DHT22;7057;49.984;8.404;2023-03-12T07:08:10;2.00;99.90
13970;DHT22;7057;49.984;8.404;2023-03-12T07:10:38;2.10;99.90
13970;DHT22;7057;49.984;8.404;2023-03-12T07:13:05;2.10;99.90
13970;DHT22;7057;49.984;8.404;2023-03-12T07:15:33;2.20;99.90
13970;DHT22;7057;49.984;8.404;2023-03-12T07:18:00;2.20;99.90
13970;DHT22;7057;49.984;8.404;2023-03-12T07:20:30;2.20;99.90
13970;DHT22;7057;49.984;8.404;2023-03-12T07:22:58;2.20;99.90
13970;DHT22;7057;49.984;8.404;2023-03-12T07:25:26;2.20;99.90
13970;DHT22;7057;49.984;8.404;2023-03-12T07:27:53;2.20;99.90
13970;DHT22;7057;49.984;8.404;2023-03-12T07:30:25;2.20;99.90
13970;DHT22;7057;49.984;8.404;2023-03-12T07:33:00;2.30;99.90
13970;DHT22;7057;49.984;8.404;2023-03-12T07:35:28;2.20;99.90
13970;DHT22;7057;49.984;8.404;2023-03-12T07:37:57;2.30;99.90
13970;DHT22;7057;49.984;8.404;2023-03-12T07:40:25;2.30;99.90
13970;DHT22;7057;49.984;8.404;2023-03-12T07:42:52;2.30;99.90
13970;DHT22;7057;49.984;8.404;2023-03-12T07:45:20;2.20;99.90
13970;DHT22;7057;49.984;8.404;2023-03-12T07:47:47;2.20;99.90
13970;DHT22;7057;49.984;8.404;2023-03-12T07:50:16;2.30;99.90
13970;DHT22;7057;49.984;8.404;2023-03-12T07:52:44;2.40;99.90
13970;DHT22;7057;49.984;8.404;2023-03-12T07:55:12;2.20;99.90
13970;DHT22;7057;49.984;8.404;2023-03-12T07:57:41;2.30;99.90
13970;DHT22;7057;49.984;8.404;2023-03-12T08:00:09;2.30;99.90
13970;DHT22;7057;49.984;8.404;2023-03-12T08:02:37;2.30;99.90
13970;DHT22;7057;49.984;8.404;2023-03-12T08:05:05;2.30;99.90
13970;DHT22;7057;49.984;8.404;2023-03-12T08:07:33;2.30;99.90
13970;DHT22;7057;49.984;8.404;2023-03-12T08:10:01;2.40;99.90
13970;DHT22;7057;49.984;8.404;2023-03-12T08:12:30;2.30;99.90
13970;DHT22;7057;49.984;8.404;2023-03-12T08:14:57;2.20;99.90
13970;DHT22;7057;49.984;8.404;2023-03-12T08:17:25;2.20;99.90
13970;DHT22;7057;49.984;8.404;2023-03-12T08:19:52;2.10;99.90
13970;DHT22;7057;49.984;8.404;2023-03-12T08:22:19;2.10;99.90
13970;DHT22;7057;49.984;8.404;2023-03-12T08:24:46;2.20;99.90
13970;DHT22;7057;49.984;8.404;2023-03-12T08:27:14;2.20;99.90
13970;DHT22;7057;49.984;8.404;2023-03-12T08:29:42;2.30;99.90
13970;DHT22;7057;49.984;8.404;2023-03-12T08:32:09;2.30;99.90
13970;DHT22;7057;49.984;8.404;2023-03-12T08:34:37;2.30;99.90
13970;DHT22;7057;49.984;8.404;2023-03-12T08:37:04;2.40;99.90
13970;DHT22;7057;49.984;8.404;2023-03-12T08:39:32;2.50;99.90
13970;DHT22;7057;49.984;8.404;2023-03-12T08:41:59;2.50;99.90
13970;DHT22;7057;49.984;8.404;2023-03-12T08:44:26;2.50;99.90
13970;DHT22;7057;49.984;8.404;2023-03-12T08:46:55;2.50;99.90
13970;DHT22;7057;49.984;8.404;2023-03-12T08:49:22;2.50;99.90
13970;DHT22;7057;49.984;8.404;2023-03-12T08:51:50;2.60;99.90
13970;DHT22;7057;49.984;8.404;2023-03-12T08:54:17;2.70;99.90
13970;DHT22;7057;49.984;8.404;2023-03-12T08:56:47;2.80;99.90
13970;DHT22;7057;49.984;8.404;2023-03-12T08:59:16;2.90;99.90
13970;DHT22;7057;49.984;8.404;2023-03-12T09:01:45;3.00;99.90
13970;DHT22;7057;49.984;8.404;2023-03-12T09:04:13;2.90;99.90
13970;DHT22;7057;49.984;8.404;2023-03-12T09:06:41;2.90;99.90
13970;DHT22;7057;49.984;8.404;2023-03-12T09:09:08;3.00;99.90
13970;DHT22;7057;49.984;8.404;2023-03-12T09:11:36;3.00;99.90
13970;DHT22;7057;49.984;8.404;2023-03-12T09:14:06;3.00;99.90
13970;DHT22;7057;49.984;8.404;2023-03-12T09:16:33;3.00;99.90
13970;DHT22;7057;49.984;8.404;2023-03-12T09:19:00;3.00;99.90
13970;DHT22;7057;49.984;8.404;2023-03-12T09:21:29;3.00;99.90
13970;DHT22;7057;49.984;8.404;2023-03-12T09:23:56;3.00;99.90
13970;DHT22;7057;49.984;8.404;2023-03-12T09:26:23;3.00;99.90
13970;DHT22;7057;49.984;8.404;2023-03-12T09:28:50;3.10;99.90
13970;DHT22;7057;49.984;8.404;2023-03-12T09:31:18;3.20;99.90
13970;DHT22;7057;49.984;8.404;2023-03-12T09:33:45;3.20;99.90
13970;DHT22;7057;49.984;8.404;2023-03-12T09:36:12;3.50;99.90
13970;DHT22;7057;49.984;8.404;2023-03-12T09:38:41;3.70;99.90
13970;DHT22;7057;49.984;8.404;2023-03-12T09:41:17;3.70;99.90
13970;DHT22;7057;49.984;8.404;2023-03-12T09:43:49;3.90;99.90
13970;DHT22;7057;49.984;8.404;2023-03-12T09:46:23;4.00;99.90
13970;DHT22;7057;49.984;8.404;2023-03-12T09:48:53;4.10;99.90
13970;DHT22;7057;49.984;8.404;2023-03-12T09:51:26;4.20;99.90
13970;DHT22;7057;49.984;8.404;2023-03-12T09:53:57;4.20;99.90
13970;DHT22;7057;49.984;8.404;2023-03-12T09:56:25;4.20;99.90
13970;DHT22;7057;49.984;8.404;2023-03-12T09:58:53;4.20;99.90
13970;DHT22;7057;49.984;8.404;2023-03-12T10:01:37;4.20;99.90
13970;DHT22;7057;49.984;8.404;2023-03-12T10:04:19;4.20;99.90
13970;DHT22;7057;49.984;8.404;2023-03-12T10:06:54;4.20;99.90
13970;DHT22;7057;49.984;8.404;2023-03-12T10:09:36;4.20;99.90
13970;DHT22;7057;49.984;8.404;2023-03-12T10:12:13;4.20;99.90
13970;DHT22;7057;49.984;8.404;2023-03-12T10:14:52;4.30;99.90
13970;DHT22;7057;49.984;8.404;2023-03-12T10:17:33;4.20;99.90
13970;DHT22;7057;49.984;8.404;2023-03-12T10:20:25;4.20;99.90
13970;DHT22;7057;49.984;8.404;2023-03-12T10:22:59;4.30;99.90
13970;DHT22;7057;49.984;8.404;2023-03-12T10:25:36;4.30;99.90
13970;DHT22;7057;49.984;8.404;2023-03-12T10:28:13;4.20;99.90
13970;DHT22;7057;49.984;8.404;2023-03-12T10:30:46;4.20;99.90
13970;DHT22;7057;49.984;8.404;2023-03-12T10:33:16;4.20;99.90
13970;DHT22;7057;49.984;8.404;2023-03-12T10:35:44;4.40;99.90
13970;DHT22;7057;49.984;8.404;2023-03-12T10:38:14;4.50;99.90
13970;DHT22;7057;49.984;8.404;2023-03-12T10:40:44;4.60;99.90
13970;DHT22;7057;49.984;8.404;2023-03-12T10:43:11;4.70;99.90
13970;DHT22;7057;49.984;8.404;2023-03-12T10:45:43;4.80;99.90
13970;DHT22;7057;49.984;8.404;2023-03-12T10:48:19;4.90;99.90
13970;DHT22;7057;49.984;8.404;2023-03-12T10:51:00;5.00;99.90
13970;DHT22;7057;49.984;8.404;2023-03-12T10:53:29;5.10;99.90
13970;DHT22;7057;49.984;8.404;2023-03-12T10:56:01;5.10;99.90
13970;DHT22;7057;49.984;8.404;2023-03-12T10:58:36;5.00;99.90
13970;DHT22;7057;49.984;8.404;2023-03-12T11:01:05;4.90;99.90
13970;DHT22;7057;49.984;8.404;2023-03-12T11:03:33;4.90;99.90
13970;DHT22;7057;49.984;8.404;2023-03-12T11:06:01;4.80;99.90
13970;DHT22;7057;49.984;8.404;2023-03-12T11:08:30;4.90;99.90
13970;DHT22;7057;49.984;8.404;2023-03-12T11:11:00;5.00;99.90
13970;DHT22;7057;49.984;8.404;2023-03-12T11:13:30;5.10;99.90
13970;DHT22;7057;49.984;8.404;2023-03-12T11:16:00;5.20;99.90
13970;DHT22;7057;49.984;8.404;2023-03-12T11:18:32;5.30;99.90
13970;DHT22;7057;49.984;8.404;2023-03-12T11:21:17;5.40;99.90
13970;DHT22;7057;49.984;8.404;2023-03-12T11:26:34;5.80;99.90
13970;DHT22;7057;49.984;8.404;2023-03-12T11:29:08;6.00;99.90
13970;DHT22;7057;49.984;8.404;2023-03-12T11:31:41;6.10;99.90
13970;DHT22;7057;49.984;8.404;2023-03-12T11:34:17;6.20;99.90
13970;DHT22;7057;49.984;8.404;2023-03-12T11:36:53;6.20;99.90
13970;DHT22;7057;49.984;8.404;2023-03-12T11:39:26;6.40;99.90
13970;DHT22;7057;49.984;8.404;2023-03-12T11:42:09;6.50;99.90
13970;DHT22;7057;49.984;8.404;2023-03-12T11:44:44;6.50;99.90
13970;DHT22;7057;49.984;8.404;2023-03-12T11:47:26;6.50;99.90
13970;DHT22;7057;49.984;8.404;2023-03-12T11:50:14;6.70;99.90
13970;DHT22;7057;49.984;8.404;2023-03-12T11:52:56;6.70;99.90
13970;DHT22;7057;49.984;8.404;2023-03-12T11:55:59;6.80;99.90
13970;DHT22;7057;49.984;8.404;2023-03-12T11:58:40;7.00;99.90
13970;DHT22;7057;49.984;8.404;2023-03-12T12:01:13;7.10;99.90
13970;DHT22;7057;49.984;8.404;2023-03-12T12:04:12;7.10;99.90
13970;DHT22;7057;49.984;8.404;2023-03-12T12:06:50;7.00;99.90
13970;DHT22;7057;49.984;8.404;2023-03-12T12:09:24;7.10;99.90
13970;DHT22;7057;49.984;8.404;2023-03-12T12:12:06;7.10;99.90
13970;DHT22;7057;49.984;8.404;2023-03-12T12:14:48;7.10;99.90
13970;DHT22;7057;49.984;8.404;2023-03-12T12:17:24;7.20;99.90
13970;DHT22;7057;49.984;8.404;2023-03-12T12:20:00;7.40;99.90
13970;DHT22;7057;49.984;8.404;2023-03-12T12:22:41;7.60;99.90
13970;DHT22;7057;49.984;8.404;2023-03-12T12:25:34;7.90;99.90
13970;DHT22;7057;49.984;8.404;2023-03-12T12:28:17;8.20;99.90
13970;DHT22;7057;49.984;8.404;2023-03-12T12:30:57;8.30;99.90
13970;DHT22;7057;49.984;8.404;2023-03-12T12:33:38;8.40;99.90
13970;DHT22;7057;49.984;8.404;2023-03-12T12:36:12;8.50;99.90
13970;DHT22;7057;49.984;8.404;2023-03-12T12:38:42;8.80;99.90
13970;DHT22;7057;49.984;8.404;2023-03-12T12:41:14;9.00;99.90
13970;DHT22;7057;49.984;8.404;2023-03-12T12:43:45;9.10;99.90
13970;DHT22;7057;49.984;8.404;2023-03-12T12:46:17;9.20;99.90
13970;DHT22;7057;49.984;8.404;2023-03-12T12:48:47;9.20;99.90
13970;DHT22;7057;49.984;8.404;2023-03-12T12:51:18;9.20;99.90
13970;DHT22;7057;49.984;8.404;2023-03-12T12:53:50;9.20;99.90
13970;DHT22;7057;49.984;8.404;2023-03-12T12:56:24;9.40;99.90
13970;DHT22;7057;49.984;8.404;2023-03-12T12:59:18;9.50;99.90
13970;DHT22;7057;49.984;8.404;2023-03-12T13:01:52;9.50;99.90
13970;DHT22;7057;49.984;8.404;2023-03-12T13:04:25;9.60;99.90
13970;DHT22;7057;49.984;8.404;2023-03-12T13:06:58;9.60;99.90
13970;DHT22;7057;49.984;8.404;2023-03-12T13:09:37;9.60;99.90
13970;DHT22;7057;49.984;8.404;2023-03-12T13:12:19;9.60;99.90
13970;DHT22;7057;49.984;8.404;2023-03-12T13:14:47;9.70;99.90
13970;DHT22;7057;49.984;8.404;2023-03-12T13:17:34;9.90;99.90
13970;DHT22;7057;49.984;8.404;2023-03-12T13:20:14;10.10;99.90
13970;DHT22;7057;49.984;8.404;2023-03-12T13:25:59;10.30;99.90
13970;DHT22;7057;49.984;8.404;2023-03-12T13:28:32;10.60;99.90
13970;DHT22;7057;49.984;8.404;2023-03-12T13:31:02;10.80;99.90
13970;DHT22;7057;49.984;8.404;2023-03-12T13:33:40;11.00;99.90
13970;DHT22;7057;49.984;8.404;2023-03-12T13:36:19;10.70;99.90
13970;DHT22;7057;49.984;8.404;2023-03-12T13:38:55;10.80;99.90
13970;DHT22;7057;49.984;8.404;2023-03-12T13:41:32;11.00;99.90
13970;DHT22;7057;49.984;8.404;2023-03-12T13:46:44;11.30;99.90
13970;DHT22;7057;49.984;8.404;2023-03-12T13:49:15;11.20;99.90
13970;DHT22;7057;49.984;8.404;2023-03-12T13:51:55;11.30;99.90
13970;DHT22;7057;49.984;8.404;2023-03-12T13:54:27;11.40;99.90
13970;DHT22;7057;49.984;8.404;2023-03-12T13:57:01;11.40;99.90
13970;DHT22;7057;49.984;8.404;2023-03-12T13:59:29;11.50;99.90
13970;DHT22;7057;49.984;8.404;2023-03-12T14:02:01;11.50;99.90
13970;DHT22;7057;49.984;8.404;2023-03-12T14:04:33;11.40;99.90
13970;DHT22;7057;49.984;8.404;2023-03-12T14:07:32;11.30;99.90
13970;DHT22;7057;49.984;8.404;2023-03-12T14:10:13;11.10;99.90
13970;DHT22;7057;49.984;8.404;2023-03-12T14:12:53;10.70;99.90
13970;DHT22;7057;49.984;8.404;2023-03-12T14:15:28;10.50;99.90
13970;DHT22;7057;49.984;8.404;2023-03-12T14:18:01;10.30;99.90
13970;DHT22;7057;49.984;8.404;2023-03-12T14:20:36;10.20;99.90
13970;DHT22;7057;49.984;8.404;2023-03-12T14:23:07;10.10;99.90
13970;DHT22;7057;49.984;8.404;2023-03-12T14:25:37;10.00;99.90
13970;DHT22;7057;49.984;8.404;2023-03-12T14:28:12;9.90;99.90
13970;DHT22;7057;49.984;8.404;2023-03-12T14:30:43;9.80;99.90
13970;DHT22;7057;49.984;8.404;2023-03-12T14:33:13;9.80;99.90
13970;DHT22;7057;49.984;8.404;2023-03-12T14:35:47;9.70;99.90
13970;DHT22;7057;49.984;8.404;2023-03-12T14:38:20;9.90;99.90
13970;DHT22;7057;49.984;8.404;2023-03-12T14:40:54;10.10;99.90
13970;DHT22;7057;49.984;8.404;2023-03-12T14:43:24;10.30;99.90
13970;DHT22;7057;49.984;8.404;2023-03-12T14:45:55;10.40;99.90
13970;DHT22;7057;49.984;8.404;2023-03-12T14:48:26;10.50;99.90
13970;DHT22;7057;49.984;8.404;2023-03-12T14:50:56;10.50;99.90
13970;DHT22;7057;49.984;8.404;2023-03-12T14:53:25;10.50;99.90
13970;DHT22;7057;49.984;8.404;2023-03-12T14:56:00;10.50;99.90
13970;DHT22;7057;49.984;8.404;2023-03-12T14:58:28;10.40;99.90
13970;DHT22;7057;49.984;8.404;2023-03-12T15:00:57;10.30;99.90
13970;DHT22;7057;49.984;8.404;2023-03-12T15:03:26;10.30;99.90
13970;DHT22;7057;49.984;8.404;2023-03-12T15:05:56;10.30;99.90
13970;DHT22;7057;49.984;8.404;2023-03-12T15:08:24;10.30;99.90
13970;DHT22;7057;49.984;8.404;2023-03-12T15:10:55;10.40;99.90
13970;DHT22;7057;49.984;8.404;2023-03-12T15:13:24;10.40;99.90
13970;DHT22;7057;49.984;8.404;2023-03-12T15:15:53;10.60;99.90
13970;DHT22;7057;49.984;8.404;2023-03-12T15:18:23;10.70;99.90
13970;DHT22;7057;49.984;8.404;2023-03-12T15:20:52;10.70;99.90
13970;DHT22;7057;49.984;8.404;2023-03-12T15:23:22;10.80;99.90
13970;DHT22;7057;49.984;8.404;2023-03-12T15:26:08;10.80;99.90
13970;DHT22;7057;49.984;8.404;2023-03-12T15:28:36;10.80;99.90
13970;DHT22;7057;49.984;8.404;2023-03-12T15:31:09;10.80;99.90
13970;DHT22;7057;49.984;8.404;2023-03-12T15:33:38;10.80;99.90
13970;DHT22;7057;49.984;8.404;2023-03-12T15:38:57;10.60;99.90
13970;DHT22;7057;49.984;8.404;2023-03-12T15:41:27;10.50;99.90
13970;DHT22;7057;49.984;8.404;2023-03-12T15:43:59;10.40;99.90
13970;DHT22;7057;49.984;8.404;2023-03-12T15:46:27;10.30;99.90
13970;DHT22;7057;49.984;8.404;2023-03-12T15:48:55;10.30;99.90
13970;DHT22;7057;49.984;8.404;2023-03-12T15:51:29;10.20;99.90
13970;DHT22;7057;49.984;8.404;2023-03-12T15:54:04;10.20;99.90
13970;DHT22;7057;49.984;8.404;2023-03-12T15:56:33;10.10;99.90
13970;DHT22;7057;49.984;8.404;2023-03-12T15:59:17;10.00;99.90
13970;DHT22;7057;49.984;8.404;2023-03-12T16:01:47;9.90;99.90
13970;DHT22;7057;49.984;8.404;2023-03-12T16:04:14;9.90;99.90
13970;DHT22;7057;49.984;8.404;2023-03-12T16:06:41;9.90;99.90
13970;DHT22;7057;49.984;8.404;2023-03-12T16:09:15;9.90;99.90
13970;DHT22;7057;49.984;8.404;2023-03-12T16:11:45;9.90;99.90
13970;DHT22;7057;49.984;8.404;2023-03-12T16:14:15;9.90;99.90
13970;DHT22;7057;49.984;8.404;2023-03-12T16:16:43;9.90;99.90
13970;DHT22;7057;49.984;8.404;2023-03-12T16:19:11;9.90;99.90
13970;DHT22;7057;49.984;8.404;2023-03-12T16:21:39;10.00;99.90
13970;DHT22;7057;49.984;8.404;2023-03-12T16:24:07;9.90;99.90
13970;DHT22;7057;49.984;8.404;2023-03-12T16:26:40;9.90;99.90
13970;DHT22;7057;49.984;8.404;2023-03-12T16:29:13;9.90;99.90